createdAt,value
2019-05-10T00:00:40.763Z,56.83
2019-05-10T00:06:00.876Z,57.03
2019-05-10T00:11:32.332Z,56.87
2019-05-10T00:16:34.773Z,57.29
2019-05-10T00:21:36.829Z,57.69
2019-05-10T00:26:38.913Z,57.81
2019-05-10T00:31:41.024Z,57.83
2019-05-10T00:36:43.102Z,57.80
2019-05-10T00:41:45.149Z,57.87
2019-05-10T00:46:47.391Z,58.00
2019-05-10T00:51:49.472Z,58.16
2019-05-10T00:56:51.485Z,58.03
2019-05-10T01:01:53.580Z,58.09
2019-05-10T01:06:56.671Z,58.05
2019-05-10T01:11:58.789Z,58.10
2019-05-10T01:17:00.896Z,57.96
2019-05-10T01:22:02.951Z,58.18
2019-05-10T01:27:05.001Z,58.18
2019-05-10T01:32:07.146Z,58.00
2019-05-10T01:37:09.200Z,58.02
2019-05-10T01:42:11.282Z,58.22
2019-05-10T01:47:13.329Z,58.06
2019-05-10T01:52:15.464Z,58.38
2019-05-10T01:57:17.535Z,58.37
2019-05-10T02:02:19.645Z,58.42
2019-05-10T02:07:21.724Z,58.35
2019-05-10T02:12:23.758Z,58.33
2019-05-10T02:17:25.887Z,58.67
2019-05-10T02:22:27.954Z,58.72
2019-05-10T02:27:30.039Z,59.16
2019-05-10T02:32:32.132Z,59.03
2019-05-10T02:37:34.377Z,59.31
2019-05-10T02:42:36.711Z,59.48
2019-05-10T02:47:38.785Z,59.76
2019-05-10T02:52:40.823Z,59.52
2019-05-10T02:57:43.984Z,59.58
2019-05-10T03:02:46.633Z,59.46
2019-05-10T03:07:52.418Z,59.51
2019-05-10T03:12:58.208Z,59.38
2019-05-10T03:18:01.604Z,59.29
2019-05-10T03:23:05.136Z,59.50
2019-05-10T03:28:07.199Z,59.70
2019-05-10T03:33:09.280Z,59.44
2019-05-10T03:38:11.690Z,59.67
2019-05-10T03:43:13.879Z,59.66
2019-05-10T03:48:15.953Z,59.60
2019-05-10T03:53:17.993Z,59.74
2019-05-10T03:58:20.073Z,59.62
2019-05-10T04:03:22.121Z,59.79
2019-05-10T04:08:24.321Z,59.87
2019-05-10T04:13:26.352Z,59.89
2019-05-10T04:18:28.437Z,59.70
2019-05-10T04:23:30.510Z,59.77
2019-05-10T04:28:32.579Z,59.96
2019-05-10T04:33:34.701Z,59.89
2019-05-10T04:38:36.782Z,59.83
2019-05-10T04:43:38.863Z,59.62
2019-05-10T04:48:40.956Z,59.25
2019-05-10T04:53:43.020Z,59.31
2019-05-10T04:58:45.060Z,59.21
2019-05-10T05:03:47.145Z,59.11
2019-05-10T05:08:49.259Z,58.92
2019-05-10T05:13:51.335Z,58.68
2019-05-10T05:18:53.443Z,58.56
2019-05-10T05:23:55.517Z,58.49
2019-05-10T05:28:57.750Z,58.43
2019-05-10T05:34:04.977Z,58.27
2019-05-10T05:39:05.782Z,56.57
2019-05-10T05:44:07.883Z,55.11
2019-05-10T05:49:09.922Z,55.69
2019-05-10T05:54:15.075Z,55.69
2019-05-10T05:59:17.334Z,56.00
2019-05-10T06:04:20.085Z,55.90
2019-05-10T06:09:22.156Z,55.95
2019-05-10T06:14:24.292Z,55.61
2019-05-10T06:19:29.421Z,54.51
2019-05-10T06:24:33.809Z,54.36
2019-05-10T06:29:34.272Z,53.98
2019-05-10T06:34:38.962Z,53.86
2019-05-10T06:39:40.694Z,52.35
2019-05-10T06:44:42.760Z,52.53
2019-05-10T06:49:50.778Z,52.75
2019-05-10T06:54:48.799Z,52.53
2019-05-10T06:59:50.990Z,52.59
2019-05-10T07:04:53.082Z,51.98
2019-05-10T07:10:12.284Z,51.73
2019-05-10T07:15:03.362Z,51.21
2019-05-10T07:20:03.844Z,51.19
2019-05-10T07:25:07.601Z,50.93
2019-05-10T07:30:10.227Z,50.09
2019-05-10T07:35:12.604Z,49.14
2019-05-10T07:40:14.797Z,47.92
2019-05-10T07:45:18.704Z,47.36
2019-05-10T07:50:20.929Z,46.07
2019-05-10T07:55:28.690Z,45.54
2019-05-10T08:00:29.082Z,44.95
2019-05-10T08:05:31.175Z,44.95
2019-05-10T08:10:33.229Z,44.80
2019-05-10T08:15:35.405Z,43.89
2019-05-10T08:20:49.612Z,43.63
2019-05-10T08:25:46.881Z,43.52
2019-05-10T08:30:58.479Z,42.01
2019-05-10T08:35:52.473Z,41.77
2019-05-10T08:40:55.765Z,41.43
2019-05-10T08:45:58.096Z,40.83
2019-05-10T08:51:04.053Z,40.77
2019-05-10T08:56:07.791Z,41.30
2019-05-10T09:01:20.592Z,41.49
2019-05-10T09:06:16.702Z,42.26
2019-05-10T09:11:16.976Z,41.96
2019-05-10T09:16:19.074Z,42.00
2019-05-10T09:21:22.311Z,41.75
2019-05-10T09:26:26.770Z,41.72
2019-05-10T09:31:34.058Z,41.99
2019-05-10T09:36:38.051Z,42.11
2019-05-10T09:41:44.645Z,42.37
2019-05-10T09:46:47.211Z,42.07
2019-05-10T09:51:49.553Z,42.28
2019-05-10T09:56:52.456Z,42.23
2019-05-10T10:01:57.024Z,42.43
2019-05-10T10:06:58.890Z,41.19
2019-05-10T10:12:03.003Z,40.77
2019-05-10T10:17:05.081Z,40.53
2019-05-10T10:22:11.025Z,40.95
2019-05-10T10:27:12.934Z,40.08
2019-05-10T10:32:15.051Z,40.43
2019-05-10T10:37:22.124Z,40.55
2019-05-10T10:42:21.164Z,40.67
2019-05-10T10:47:28.354Z,40.21
2019-05-10T10:52:27.841Z,40.34
2019-05-10T10:57:30.040Z,40.29
2019-05-10T11:02:33.906Z,40.24
2019-05-10T11:07:41.043Z,40.32
2019-05-10T11:12:41.393Z,40.40
2019-05-10T11:17:43.713Z,39.76
2019-05-10T11:22:50.917Z,39.69
2019-05-10T11:27:56.426Z,39.03
2019-05-10T11:32:53.997Z,38.89
2019-05-10T11:37:56.106Z,39.55
2019-05-10T11:42:58.206Z,39.47
2019-05-10T11:48:02.167Z,38.40
2019-05-10T11:53:06.848Z,38.00
2019-05-10T11:58:12.280Z,37.26
2019-05-10T12:03:18.405Z,37.42
2019-05-10T12:08:16.262Z,36.93
2019-05-10T12:13:20.852Z,37.40
2019-05-10T12:26:05.395Z,37.57
2019-05-10T12:26:59.165Z,38.14
2019-05-10T12:28:35.324Z,37.80
2019-05-10T12:33:50.439Z,38.23
2019-05-10T12:38:52.223Z,38.30
2019-05-10T12:44:02.748Z,38.15
2019-05-10T12:48:58.448Z,37.99
2019-05-10T12:54:00.479Z,38.33
2019-05-10T12:59:02.586Z,38.82
2019-05-10T13:04:13.760Z,39.70
2019-05-10T13:09:08.678Z,40.50
2019-05-10T13:14:10.723Z,40.39
2019-05-10T13:19:14.286Z,40.22
2019-05-10T13:24:16.742Z,40.47
2019-05-10T13:29:18.827Z,40.95
2019-05-10T13:34:24.060Z,41.40
2019-05-10T13:39:27.406Z,42.38
2019-05-10T13:44:28.939Z,42.95
2019-05-10T13:49:31.069Z,43.00
2019-05-10T13:54:36.189Z,42.85
2019-05-10T13:59:37.123Z,42.15
2019-05-10T14:04:40.210Z,41.83
2019-05-10T14:09:42.379Z,41.93
2019-05-10T14:14:44.416Z,41.55
2019-05-10T14:19:46.518Z,41.48
2019-05-10T14:24:52.806Z,41.75
2019-05-10T14:29:52.655Z,42.10
2019-05-10T14:34:54.724Z,42.74
2019-05-10T14:39:56.811Z,43.28
2019-05-10T14:44:58.940Z,43.63
2019-05-10T14:50:01.093Z,43.76
2019-05-10T14:55:04.034Z,43.67
2019-05-10T15:00:06.878Z,43.90
2019-05-10T15:05:16.134Z,43.66
2019-05-10T15:10:13.610Z,42.48
2019-05-10T15:15:15.877Z,42.17
2019-05-10T15:20:17.982Z,42.52
2019-05-10T15:25:20.159Z,43.06
2019-05-10T15:30:22.350Z,43.05
2019-05-10T15:35:24.423Z,42.92
2019-05-10T15:40:26.491Z,41.56
2019-05-10T15:45:28.725Z,41.43
2019-05-10T15:50:32.479Z,41.07
2019-05-10T15:55:35.929Z,41.27
2019-05-10T16:00:41.229Z,41.17
2019-05-10T16:05:43.986Z,41.41
2019-05-10T16:10:48.188Z,40.75
2019-05-10T16:15:51.543Z,40.80
2019-05-10T16:20:54.239Z,40.90
2019-05-10T16:25:56.307Z,40.71
2019-05-10T16:30:58.395Z,41.20
2019-05-10T16:36:00.438Z,41.74
2019-05-10T16:41:02.518Z,42.09
2019-05-10T16:46:04.753Z,42.99
2019-05-10T16:51:09.920Z,42.20
2019-05-10T16:56:13.510Z,42.64
2019-05-10T17:01:18.567Z,42.28
2019-05-10T17:06:18.667Z,42.47
2019-05-10T17:11:20.754Z,42.93
2019-05-10T17:16:22.851Z,42.98
2019-05-10T17:21:24.905Z,43.22
2019-05-10T17:26:26.975Z,43.60
2019-05-10T17:31:29.041Z,44.50
2019-05-10T17:36:31.194Z,45.74
2019-05-10T17:41:33.286Z,45.84
2019-05-10T17:46:35.357Z,46.37
2019-05-10T17:51:37.415Z,46.98
2019-05-10T17:56:40.668Z,47.68
2019-05-10T18:01:43.044Z,47.36
2019-05-10T18:06:45.123Z,47.74
2019-05-10T18:11:47.182Z,48.05
2019-05-10T18:16:50.146Z,48.87
2019-05-10T18:21:54.838Z,49.51
2019-05-10T18:26:56.610Z,50.20
2019-05-10T18:31:58.715Z,50.61
2019-05-10T18:37:00.774Z,50.93
2019-05-10T18:42:02.857Z,51.31
2019-05-10T18:47:04.977Z,51.71
2019-05-10T18:52:07.053Z,52.13
2019-05-10T18:57:12.218Z,52.24
2019-05-10T19:02:17.944Z,52.44
2019-05-10T19:07:17.039Z,52.81
2019-05-10T19:12:26.131Z,52.92
2019-05-10T19:17:31.691Z,53.02
2019-05-10T19:22:33.727Z,53.11
2019-05-10T19:27:38.857Z,53.06
2019-05-10T19:32:39.795Z,53.13
2019-05-10T19:37:41.849Z,53.46
2019-05-10T19:42:44.963Z,53.47
2019-05-10T19:47:49.828Z,53.65
2019-05-10T19:52:51.210Z,53.69
2019-05-10T19:57:54.672Z,53.71
2019-05-10T20:02:57.345Z,53.98
2019-05-10T20:07:59.429Z,54.20
2019-05-10T20:13:01.569Z,54.35
2019-05-10T20:18:04.185Z,54.38
2019-05-10T20:23:06.644Z,54.60
2019-05-10T20:28:09.710Z,54.88
2019-05-10T20:33:11.784Z,54.97
2019-05-10T20:38:13.823Z,55.16
2019-05-10T20:43:15.893Z,55.36
2019-05-10T20:48:18.027Z,55.36
2019-05-10T20:53:20.172Z,55.78
2019-05-10T20:58:22.302Z,55.90
2019-05-10T21:03:24.377Z,56.10
2019-05-10T21:08:26.459Z,56.29
2019-05-10T21:13:28.589Z,56.23
2019-05-10T21:18:30.686Z,56.35
2019-05-10T21:23:32.766Z,56.53
2019-05-10T21:28:36.474Z,56.56
2019-05-10T21:33:38.523Z,56.18
2019-05-10T21:38:41.773Z,56.34
2019-05-10T21:43:44.176Z,56.22
2019-05-10T21:48:46.302Z,56.13
2019-05-10T21:53:48.414Z,56.10
2019-05-10T21:58:50.458Z,55.76
2019-05-10T22:03:52.520Z,55.88
2019-05-10T22:08:54.622Z,55.99
2019-05-10T22:13:56.687Z,56.46
2019-05-10T22:19:00.729Z,56.48
2019-05-10T22:24:02.822Z,56.41
2019-05-10T22:29:04.890Z,57.06
2019-05-10T22:34:06.979Z,56.92
2019-05-10T22:39:09.031Z,56.93
2019-05-10T22:44:11.109Z,56.99
2019-05-10T22:49:13.300Z,56.91
2019-05-10T22:54:15.374Z,57.10
2019-05-10T22:59:17.414Z,56.92
2019-05-10T23:04:19.445Z,56.82
2019-05-10T23:09:24.776Z,56.74
2019-05-10T23:14:25.653Z,56.84
2019-05-10T23:19:27.705Z,56.89
2019-05-10T23:24:38.972Z,57.19
2019-05-10T23:29:41.117Z,57.06
2019-05-10T23:34:43.180Z,57.18
2019-05-10T23:39:45.222Z,57.17
2019-05-10T23:44:47.339Z,57.20
2019-05-10T23:49:49.412Z,57.07
2019-05-10T23:54:51.519Z,57.33
2019-05-10T23:59:53.628Z,57.32
